Time;durP1;ratioP1;P1;durP2;ratioP2;P2;SDS_P1;SDS_P2;PMS_P1;PMS_P2;Temp;Humidity;BMP_temperature;BMP_pressure;BME280_temperature;BME280_humidity;BME280_pressure;Samples;Min_cycle;Max_cycle;Signal;HPM_P1;HPM_P2
2022/07/12 00:01:45;;;;;;;16.50;9.20;;;14.50;99.90;;;;;;4935372;29;20031;-67
2022/07/12 00:04:11;;;;;;;17.63;9.50;;;15.20;99.90;;;;;;4936183;29;20046;-66
2022/07/12 00:06:37;;;;;;;15.95;9.32;;;14.40;99.90;;;;;;4935721;29;20035;-65
2022/07/12 00:09:02;;;;;;;12.50;9.35;;;14.30;99.90;;;;;;4936055;29;20026;-65
2022/07/12 00:11:28;;;;;;;12.98;9.25;;;14.30;99.90;;;;;;4935438;29;20035;-66
2022/07/12 00:13:53;;;;;;;14.25;8.73;;;14.30;99.90;;;;;;4935956;29;20023;-66
2022/07/12 00:16:19;;;;;;;10.55;6.82;;;14.20;99.90;;;;;;4935395;29;20027;-66
2022/07/12 00:18:44;;;;;;;12.40;8.38;;;14.10;99.90;;;;;;4936009;29;20039;-66
2022/07/12 00:21:10;;;;;;;16.23;9.13;;;14.10;99.90;;;;;;4918793;29;20035;-66
2022/07/12 00:23:35;;;;;;;14.88;8.60;;;14.10;99.90;;;;;;4935373;29;20039;-66
2022/07/12 00:26:04;;;;;;;22.10;11.23;;;14.10;99.90;;;;;;4935531;29;20142;-65
2022/07/12 00:28:32;;;;;;;13.40;8.85;;;14.10;99.90;;;;;;4935306;29;20035;-66
2022/07/12 00:30:58;;;;;;;14.80;9.20;;;14.10;99.90;;;;;;4935612;29;20586;-66
2022/07/12 00:33:24;;;;;;;11.00;7.95;;;14.00;99.90;;;;;;4935393;29;20118;-66
2022/07/12 00:35:49;;;;;;;20.70;8.40;;;14.00;99.90;;;;;;4935209;29;20023;-66
2022/07/12 00:38:15;;;;;;;14.77;8.18;;;14.30;99.90;;;;;;4934896;29;20412;-65
2022/07/12 00:40:40;;;;;;;10.55;7.60;;;14.00;99.90;;;;;;4935564;29;20492;-66
2022/07/12 00:43:06;;;;;;;15.60;8.18;;;13.90;99.90;;;;;;4934820;29;20042;-66
2022/07/12 00:45:32;;;;;;;8.55;7.22;;;13.90;99.90;;;;;;4935377;29;20176;-66
2022/07/12 00:47:57;;;;;;;11.43;7.80;;;13.90;99.90;;;;;;4935603;29;20489;-66
2022/07/12 00:50:23;;;;;;;12.35;7.78;;;13.90;99.90;;;;;;4918289;29;20469;-66
2022/07/12 00:52:50;;;;;;;7.85;6.85;;;13.90;99.90;;;;;;4935630;29;20032;-66
2022/07/12 00:55:16;;;;;;;9.93;7.43;;;13.80;99.90;;;;;;4935317;29;20382;-66
2022/07/12 00:57:46;;;;;;;22.20;8.32;;;13.70;99.90;;;;;;4935113;29;20043;-66
2022/07/12 01:00:13;;;;;;;16.98;9.60;;;13.70;99.90;;;;;;4935869;29;20102;-65
2022/07/12 01:02:39;;;;;;;19.27;10.68;;;13.70;99.90;;;;;;4938895;29;20066;-65
2022/07/12 01:05:05;;;;;;;19.67;9.90;;;13.70;99.90;;;;;;4938756;29;20036;-65
2022/07/12 01:07:30;;;;;;;12.35;8.27;;;13.70;99.90;;;;;;4938943;29;20488;-66
2022/07/12 01:09:56;;;;;;;11.07;8.40;;;14.00;99.90;;;;;;4938730;29;20024;-65
2022/07/12 01:12:22;;;;;;;13.52;8.02;;;13.70;99.90;;;;;;4938933;29;20040;-66
2022/07/12 01:14:48;;;;;;;14.45;7.90;;;13.70;99.90;;;;;;4938784;29;20031;-66
2022/07/12 01:17:14;;;;;;;9.57;8.05;;;13.80;99.90;;;;;;4939005;29;20035;-66
2022/07/12 01:19:40;;;;;;;13.82;7.30;;;13.90;99.90;;;;;;4938792;29;20032;-66
2022/07/12 01:22:09;;;;;;;10.00;7.30;;;13.90;99.90;;;;;;4905981;29;20496;-66
2022/07/12 01:24:35;;;;;;;11.35;7.03;;;14.00;99.90;;;;;;4938625;29;20059;-66
2022/07/12 01:27:05;;;;;;;11.02;7.78;;;13.90;99.90;;;;;;4938795;29;20115;-66
2022/07/12 01:29:31;;;;;;;9.02;6.80;;;13.80;99.90;;;;;;4938383;29;20043;-66
2022/07/12 01:32:24;;;;;;;12.50;8.07;;;13.70;99.90;;;;;;4938738;29;20028;-67
2022/07/12 01:34:42;;;;;;;10.73;6.97;;;13.60;99.90;;;;;;4924006;29;20520;-66
2022/07/12 01:37:08;;;;;;;7.65;6.78;;;13.70;99.90;;;;;;4921541;29;20031;-66
2022/07/12 01:39:34;;;;;;;7.82;6.88;;;13.70;99.90;;;;;;4938436;29;20024;-66
2022/07/12 01:41:59;;;;;;;9.57;7.28;;;13.60;99.90;;;;;;4921482;29;20024;-66
2022/07/12 01:44:25;;;;;;;8.30;7.18;;;13.50;99.90;;;;;;4938655;29;20028;-66
2022/07/12 01:46:50;;;;;;;7.22;6.50;;;13.50;99.90;;;;;;4938320;29;20507;-66
2022/07/12 01:49:16;;;;;;;9.30;7.05;;;13.50;99.90;;;;;;4938182;29;20062;-66
2022/07/12 01:51:41;;;;;;;11.85;7.90;;;13.40;99.90;;;;;;4938196;29;20036;-66
2022/07/12 01:54:07;;;;;;;11.43;7.55;;;13.50;99.90;;;;;;4938512;29;20031;-66
2022/07/12 01:56:32;;;;;;;15.60;8.55;;;13.40;99.90;;;;;;4937880;29;20038;-66
2022/07/12 01:58:58;;;;;;;14.23;8.40;;;13.40;99.90;;;;;;4938206;29;20051;-66
2022/07/12 02:01:24;;;;;;;11.00;7.47;;;13.80;99.90;;;;;;4920552;29;20035;-74
2022/07/12 02:03:49;;;;;;;24.25;11.52;;;13.40;99.90;;;;;;4920941;29;20040;-72
2022/07/12 02:06:15;;;;;;;13.88;9.95;;;13.40;99.90;;;;;;4937717;29;20042;-72
2022/07/12 02:08:43;;;;;;;14.77;8.90;;;13.30;99.90;;;;;;4937591;29;20035;-72
2022/07/12 02:11:09;;;;;;;8.23;7.15;;;14.50;99.90;;;;;;4937658;29;20110;-72
2022/07/12 02:13:34;;;;;;;8.55;7.05;;;13.30;99.90;;;;;;4937728;29;20102;-72
2022/07/12 02:16:00;;;;;;;12.85;7.35;;;13.30;99.90;;;;;;4937973;29;20042;-72
2022/07/12 02:18:25;;;;;;;11.82;7.72;;;13.20;99.90;;;;;;4937677;29;20031;-72
2022/07/12 02:20:51;;;;;;;10.35;7.25;;;13.20;99.90;;;;;;4937855;29;20036;-72
2022/07/12 02:23:16;;;;;;;10.50;7.88;;;13.20;99.90;;;;;;4937529;29;20535;-72
2022/07/12 02:25:42;;;;;;;8.93;7.30;;;13.20;99.90;;;;;;4937282;29;20056;-72
2022/07/12 02:28:07;;;;;;;10.50;7.80;;;13.20;99.90;;;;;;4937485;29;20028;-72
2022/07/12 02:30:33;;;;;;;8.80;7.32;;;13.20;99.90;;;;;;4936803;29;20048;-72
2022/07/12 02:32:58;;;;;;;22.80;11.23;;;13.20;99.90;;;;;;4920160;29;20051;-72
2022/07/12 02:35:25;;;;;;;27.13;11.95;;;13.20;99.90;;;;;;4936949;29;20544;-72
2022/07/12 02:37:50;;;;;;;20.67;10.30;;;13.20;99.90;;;;;;4937068;29;20038;-72
2022/07/12 02:43:00;;;;;;;15.98;9.00;;;13.10;99.90;;;;;;4923167;29;20098;-72
2022/07/12 02:45:25;;;;;;;14.50;8.90;;;13.10;99.90;;;;;;4937409;29;20483;-72
2022/07/12 02:47:51;;;;;;;25.15;10.23;;;13.20;99.90;;;;;;4937395;29;20496;-72
2022/07/12 02:50:16;;;;;;;13.35;8.45;;;13.10;99.90;;;;;;4935974;29;20031;-72
2022/07/12 02:52:42;;;;;;;11.52;8.13;;;13.10;99.90;;;;;;4937200;29;20043;-72
2022/07/12 02:55:08;;;;;;;9.63;7.47;;;13.10;99.90;;;;;;4937164;29;20392;-72
2022/07/12 02:57:33;;;;;;;8.80;7.70;;;13.00;99.90;;;;;;4937190;29;20044;-72
2022/07/12 02:59:59;;;;;;;13.52;8.45;;;13.10;99.90;;;;;;4936949;29;20111;-73
2022/07/12 03:02:24;;;;;;;11.63;8.13;;;13.70;99.90;;;;;;4936932;29;20040;-72
2022/07/12 03:04:50;;;;;;;10.15;7.88;;;13.20;99.90;;;;;;4936801;29;20106;-72
2022/07/12 03:07:15;;;;;;;12.80;8.68;;;13.20;99.90;;;;;;4936806;29;20549;-72
2022/07/12 03:09:41;;;;;;;14.52;9.10;;;13.10;99.90;;;;;;4936646;29;20413;-72
2022/07/12 03:12:07;;;;;;;12.65;8.43;;;13.10;99.90;;;;;;4936872;29;20032;-74
2022/07/12 03:14:32;;;;;;;9.35;7.57;;;13.10;99.90;;;;;;4936193;29;20031;-73
2022/07/12 03:16:58;;;;;;;11.68;8.00;;;13.10;99.90;;;;;;4936925;29;20028;-72
2022/07/12 03:19:23;;;;;;;9.18;7.88;;;13.20;99.90;;;;;;4919159;29;20508;-72
2022/07/12 03:21:49;;;;;;;11.82;7.28;;;13.40;99.90;;;;;;4936525;29;20440;-72
2022/07/12 03:24:14;;;;;;;9.52;7.43;;;13.30;99.90;;;;;;4935441;29;20075;-73
2022/07/12 03:26:40;;;;;;;10.73;7.95;;;13.30;99.90;;;;;;4936202;29;20046;-73
2022/07/12 03:29:05;;;;;;;12.98;8.02;;;13.20;99.90;;;;;;4936869;29;20030;-73
2022/07/12 03:31:31;;;;;;;14.40;9.48;;;13.20;99.90;;;;;;4936055;29;20054;-72
2022/07/12 03:33:56;;;;;;;16.52;8.32;;;13.10;99.90;;;;;;4936592;29;20377;-72
2022/07/12 03:36:22;;;;;;;16.92;9.63;;;13.00;99.90;;;;;;4935775;29;20028;-72
2022/07/12 03:38:47;;;;;;;12.95;8.15;;;13.00;99.90;;;;;;4936252;29;20032;-72
2022/07/12 03:41:13;;;;;;;12.05;7.75;;;13.00;99.90;;;;;;4936567;29;20028;-72
2022/07/12 03:43:38;;;;;;;8.10;7.30;;;13.10;99.90;;;;;;4935997;29;20027;-70
2022/07/12 03:46:04;;;;;;;13.73;8.25;;;13.20;99.90;;;;;;4919428;29;20500;-71
2022/07/12 03:48:30;;;;;;;11.82;8.25;;;13.20;99.90;;;;;;4935237;29;20042;-71
2022/07/12 03:50:55;;;;;;;12.63;8.23;;;13.10;99.90;;;;;;4936221;29;20103;-71
2022/07/12 03:53:21;;;;;;;9.73;8.70;;;13.20;99.90;;;;;;4919260;29;20151;-71
2022/07/12 03:55:46;;;;;;;11.38;8.60;;;13.20;99.90;;;;;;4936290;29;20043;-71
2022/07/12 03:58:12;;;;;;;16.60;8.38;;;13.20;99.90;;;;;;4936283;29;20020;-71
2022/07/12 04:00:40;;;;;;;12.55;8.63;;;13.30;99.90;;;;;;4935861;29;20425;-71
2022/07/12 04:03:05;;;;;;;11.00;9.55;;;13.30;99.90;;;;;;4936167;29;20035;-72
2022/07/12 04:05:31;;;;;;;11.70;10.30;;;13.30;99.90;;;;;;4935601;29;20532;-71
2022/07/12 04:07:56;;;;;;;15.00;8.93;;;13.60;99.90;;;;;;4936024;29;20067;-70
2022/07/12 04:10:22;;;;;;;12.90;9.90;;;13.70;99.90;;;;;;4935666;29;20106;-74
2022/07/12 04:12:47;;;;;;;15.80;12.18;;;13.90;99.90;;;;;;4934558;29;20118;-72
2022/07/12 04:15:13;;;;;;;15.93;10.02;;;14.00;99.90;;;;;;4935917;29;20059;-67
2022/07/12 04:17:38;;;;;;;15.55;11.75;;;14.40;99.90;;;;;;4935441;29;20031;-67
2022/07/12 04:20:06;;;;;;;15.45;12.05;;;14.50;99.90;;;;;;4935839;29;20028;-68
2022/07/12 04:22:31;;;;;;;15.00;11.77;;;14.90;99.90;;;;;;4918873;29;20476;-66
2022/07/12 04:24:57;;;;;;;21.23;12.85;;;15.60;99.90;;;;;;4917787;29;20095;-69
2022/07/12 04:27:23;;;;;;;19.13;11.90;;;15.20;99.90;;;;;;4916835;29;20024;-66
2022/07/12 04:29:48;;;;;;;15.43;12.48;;;15.40;99.90;;;;;;4916748;29;20446;-68
2022/07/12 04:32:14;;;;;;;17.48;12.43;;;15.70;99.90;;;;;;4916853;29;20349;-67
2022/07/12 04:34:39;;;;;;;16.17;11.57;;;15.70;99.90;;;;;;4916115;29;20151;-68
2022/07/12 04:37:05;;;;;;;16.10;11.18;;;16.30;99.90;;;;;;4929336;29;20047;-75
2022/07/12 04:39:30;;;;;;;13.77;11.15;;;17.40;99.90;;;;;;4918257;29;20135;-73
2022/07/12 04:41:56;;;;;;;14.43;11.20;;;16.60;99.90;;;;;;4934909;29;20419;-74
2022/07/12 04:44:21;;;;;;;13.95;10.93;;;16.60;99.90;;;;;;4934298;29;20031;-74
2022/07/12 04:46:47;;;;;;;14.48;11.65;;;17.40;99.90;;;;;;4917513;29;20024;-74
2022/07/12 04:49:13;;;;;;;20.85;12.98;;;16.50;99.90;;;;;;4935640;29;20024;-74
2022/07/12 04:51:38;;;;;;;20.05;14.40;;;16.60;99.90;;;;;;4935268;29;20024;-74
2022/07/12 04:54:04;;;;;;;20.48;16.10;;;16.40;99.90;;;;;;4918703;29;20039;-71
2022/07/12 04:56:29;;;;;;;26.42;19.77;;;16.50;99.90;;;;;;4935042;29;20031;-70
2022/07/12 04:58:55;;;;;;;21.63;14.55;;;16.60;99.90;;;;;;4934737;29;20067;-65
2022/07/12 05:01:20;;;;;;;21.67;15.93;;;16.40;99.90;;;;;;4935140;29;20032;-66
2022/07/12 05:03:47;;;;;;;19.27;15.63;;;16.50;99.90;;;;;;4934532;29;20031;-66
2022/07/12 05:09:54;;;;;;;19.08;14.93;;;16.70;99.90;;;;;;4857671;29;20033;-66
2022/07/12 05:12:19;;;;;;;20.33;14.02;;;17.30;99.90;;;;;;4857355;29;20037;-66
2022/07/12 05:14:45;;;;;;;15.85;10.75;;;17.90;99.90;;;;;;4891572;29;20040;-66
2022/07/12 05:17:11;;;;;;;15.00;12.30;;;18.80;99.90;;;;;;4924637;29;20373;-66
2022/07/12 05:19:39;;;;;;;15.43;11.60;;;18.50;99.90;;;;;;4934172;29;20030;-66
2022/07/12 05:22:04;;;;;;;16.48;11.70;;;18.50;99.90;;;;;;4935201;29;20484;-66
2022/07/12 05:24:30;;;;;;;15.88;10.93;;;18.50;99.90;;;;;;4935122;29;20111;-66
2022/07/12 05:26:56;;;;;;;19.48;10.85;;;19.30;99.90;;;;;;4934835;29;20087;-70
2022/07/12 05:29:21;;;;;;;15.65;12.15;;;18.20;99.90;;;;;;4934792;29;20032;-70
2022/07/12 05:31:48;;;;;;;14.73;10.93;;;17.90;99.90;;;;;;4934912;29;20385;-70
2022/07/12 05:34:13;;;;;;;18.23;10.80;;;17.80;99.90;;;;;;4935288;29;20115;-70
2022/07/12 05:36:39;;;;;;;23.40;12.13;;;17.80;99.90;;;;;;4934813;29;20436;-69
2022/07/12 05:39:05;;;;;;;15.65;12.10;;;17.80;99.90;;;;;;4934917;29;20041;-69
2022/07/12 05:41:30;;;;;;;14.73;11.77;;;18.20;99.90;;;;;;4934585;29;20038;-69
2022/07/12 05:43:56;;;;;;;14.80;11.25;;;18.50;99.90;;;;;;4934588;29;20024;-69
2022/07/12 05:46:21;;;;;;;13.93;10.60;;;19.10;99.90;;;;;;4935745;29;20503;-69
2022/07/12 05:48:48;;;;;;;13.07;10.43;;;19.70;99.90;;;;;;4921221;29;20102;-69
2022/07/12 05:53:57;;;;;;;17.88;10.30;;;20.40;99.90;;;;;;4938611;29;20046;-66
2022/07/12 05:56:23;;;;;;;13.18;10.20;;;20.70;99.90;;;;;;4938323;29;20452;-66
2022/07/12 05:58:48;;;;;;;11.85;8.52;;;21.20;99.90;;;;;;4938408;29;20444;-66
2022/07/12 06:01:14;;;;;;;12.45;8.50;;;21.30;99.90;;;;;;4937745;29;20115;-66
2022/07/12 06:03:39;;;;;;;13.25;9.02;;;22.30;99.90;;;;;;4938041;29;20444;-66
2022/07/12 06:06:05;;;;;;;8.88;7.97;;;21.90;99.90;;;;;;4938305;29;20060;-66
2022/07/12 06:08:30;;;;;;;10.32;8.15;;;22.20;99.90;;;;;;4937873;29;20047;-66
2022/07/12 06:10:56;;;;;;;9.20;7.88;;;23.30;99.20;;;;;;4936819;29;20396;-66
2022/07/12 06:13:21;;;;;;;9.82;8.07;;;23.40;97.90;;;;;;4937885;29;20023;-66
2022/07/12 06:15:47;;;;;;;12.68;8.43;;;23.70;97.40;;;;;;4937483;29;20028;-66
2022/07/12 06:18:13;;;;;;;10.00;8.00;;;23.70;97.40;;;;;;4936324;29;20148;-66
2022/07/12 06:20:38;;;;;;;10.63;7.68;;;23.70;97.60;;;;;;4937215;29;20052;-66
2022/07/12 06:23:04;;;;;;;13.15;7.85;;;24.30;96.80;;;;;;4937380;29;20039;-66
2022/07/12 06:25:29;;;;;;;8.60;7.32;;;23.80;96.10;;;;;;4937273;29;20048;-66
2022/07/12 06:27:55;;;;;;;9.85;7.95;;;24.50;95.20;;;;;;4937818;29;20035;-66
2022/07/12 06:30:21;;;;;;;10.50;8.85;;;25.10;94.80;;;;;;4937182;29;20028;-67
2022/07/12 06:32:47;;;;;;;10.82;8.98;;;24.80;94.10;;;;;;4937029;29;20051;-67
2022/07/12 06:35:13;;;;;;;10.43;8.48;;;25.00;93.80;;;;;;4936927;29;20066;-67
2022/07/12 06:37:38;;;;;;;9.95;8.95;;;24.30;94.80;;;;;;4936186;29;20039;-69
2022/07/12 06:40:05;;;;;;;10.23;8.93;;;24.20;95.20;;;;;;4935165;29;20028;-69
2022/07/12 06:42:30;;;;;;;11.13;9.48;;;24.90;94.60;;;;;;4933994;29;20024;-69
2022/07/12 06:44:56;;;;;;;28.80;14.90;;;25.00;92.90;;;;;;4936896;29;20397;-69
2022/07/12 06:47:21;;;;;;;14.18;10.50;;;24.80;93.50;;;;;;4934049;29;20396;-69
2022/07/12 06:49:47;;;;;;;13.43;8.75;;;24.50;94.50;;;;;;4936104;29;20039;-69
2022/07/12 06:52:13;;;;;;;9.38;8.43;;;26.00;92.70;;;;;;4936862;29;20038;-67
2022/07/12 06:54:38;;;;;;;12.15;10.15;;;25.90;90.80;;;;;;4936888;29;20115;-70
2022/07/12 06:57:04;;;;;;;12.48;9.00;;;25.10;91.80;;;;;;4937432;29;20028;-70
2022/07/12 06:59:29;;;;;;;10.88;9.27;;;25.20;93.60;;;;;;4936255;29;20132;-68
2022/07/12 07:01:57;;;;;;;14.27;8.63;;;26.10;91.20;;;;;;4937420;29;20031;-70
2022/07/12 07:04:23;;;;;;;20.58;12.15;;;27.30;87.60;;;;;;4937319;29;20031;-70
2022/07/12 07:06:49;;;;;;;14.25;9.20;;;27.80;82.20;;;;;;4937176;29;20087;-69
2022/07/12 07:09:14;;;;;;;10.05;8.70;;;27.40;83.20;;;;;;4937296;29;20031;-70
2022/07/12 07:11:40;;;;;;;14.95;9.30;;;27.00;85.60;;;;;;4937051;29;20388;-68
2022/07/12 07:14:06;;;;;;;12.45;9.50;;;25.30;91.80;;;;;;4936747;29;20027;-68
2022/07/12 07:16:32;;;;;;;10.23;9.20;;;25.90;91.20;;;;;;4936096;29;20020;-68
2022/07/12 07:18:57;;;;;;;9.43;8.43;;;26.30;90.30;;;;;;4936252;29;20031;-68
2022/07/12 07:21:23;;;;;;;11.68;8.98;;;27.60;84.10;;;;;;4936769;29;20027;-68
2022/07/12 07:23:49;;;;;;;10.88;7.82;;;27.20;85.40;;;;;;4936424;29;20040;-68
2022/07/12 07:26:21;;;;;;;12.57;9.70;;;28.90;84.70;;;;;;4936345;29;20167;-68
2022/07/12 07:31:36;;;;;;;11.63;9.40;;;29.20;78.40;;;;;;4936326;29;20102;-68
2022/07/12 07:34:02;;;;;;;10.57;7.82;;;27.20;84.30;;;;;;4935511;29;20031;-68
2022/07/12 07:36:28;;;;;;;14.38;8.32;;;27.90;82.60;;;;;;4936377;29;20106;-68
2022/07/12 07:38:53;;;;;;;9.32;8.13;;;27.30;85.40;;;;;;4926604;29;20168;-70
2022/07/12 07:41:19;;;;;;;13.05;10.00;;;28.00;83.20;;;;;;4917510;29;20032;-68
2022/07/12 07:43:44;;;;;;;15.70;9.23;;;27.70;82.60;;;;;;4917449;29;20024;-68
2022/07/12 07:46:10;;;;;;;11.95;8.57;;;28.10;86.70;;;;;;4917507;29;20028;-68
2022/07/12 07:48:35;;;;;;;21.08;10.13;;;27.10;84.50;;;;;;4917380;29;20024;-69
2022/07/12 07:51:01;;;;;;;10.60;8.70;;;26.60;88.50;;;;;;4917510;29;20163;-68
2022/07/12 07:53:27;;;;;;;14.38;9.75;;;27.50;84.80;;;;;;4917411;29;20103;-68
2022/07/12 07:55:52;;;;;;;9.82;6.78;;;27.50;83.80;;;;;;4917160;29;20385;-68
2022/07/12 07:58:18;;;;;;;11.65;8.48;;;28.60;81.20;;;;;;4917280;29;20039;-68
2022/07/12 08:00:43;;;;;;;12.82;9.70;;;27.60;83.10;;;;;;4917156;29;20125;-68
2022/07/12 08:03:09;;;;;;;8.88;7.68;;;28.80;77.90;;;;;;4917155;29;20047;-68
2022/07/12 08:05:34;;;;;;;13.27;8.57;;;28.70;78.00;;;;;;4917157;29;20111;-69
2022/07/12 08:08:00;;;;;;;12.57;7.70;;;28.80;80.70;;;;;;4917230;29;20111;-69
2022/07/12 08:10:25;;;;;;;10.20;8.70;;;28.80;76.90;;;;;;4916890;29;20046;-68
2022/07/12 08:12:51;;;;;;;9.82;7.88;;;28.90;72.40;;;;;;4916960;29;20043;-68
2022/07/12 08:15:16;;;;;;;16.73;10.48;;;29.30;75.80;;;;;;4917121;29;20108;-68
2022/07/12 08:17:42;;;;;;;15.90;9.05;;;28.70;78.50;;;;;;4916951;29;20500;-69
2022/07/12 08:20:08;;;;;;;13.50;9.75;;;28.60;80.80;;;;;;4917074;29;20043;-68
2022/07/12 08:22:33;;;;;;;13.63;9.68;;;27.90;81.00;;;;;;4916738;29;20035;-68
2022/07/12 08:24:59;;;;;;;16.65;9.18;;;27.20;82.30;;;;;;4916896;29;20048;-68
2022/07/12 08:27:25;;;;;;;12.75;10.00;;;27.50;80.40;;;;;;4916791;29;20035;-68
2022/07/12 08:29:50;;;;;;;12.27;8.43;;;29.60;76.60;;;;;;4916861;29;20024;-68
2022/07/12 08:32:16;;;;;;;15.40;9.45;;;29.20;74.90;;;;;;4916892;29;20024;-68
2022/07/12 08:34:42;;;;;;;9.23;7.57;;;28.10;80.10;;;;;;4916752;29;20524;-70
2022/07/12 08:37:07;;;;;;;12.43;8.65;;;28.20;79.70;;;;;;4916777;29;20486;-68
2022/07/12 08:39:33;;;;;;;14.25;8.95;;;27.50;81.30;;;;;;4916718;29;20028;-68
2022/07/12 08:41:58;;;;;;;10.73;8.45;;;27.30;85.50;;;;;;4916751;29;20024;-68
2022/07/12 08:44:24;;;;;;;8.50;7.35;;;28.60;81.10;;;;;;4916677;29;20030;-67
2022/07/12 08:46:51;;;;;;;8.50;7.70;;;29.00;74.30;;;;;;4916648;29;20025;-68
2022/07/12 08:49:17;;;;;;;8.00;5.80;;;29.30;75.60;;;;;;4916773;29;20017;-68
2022/07/12 08:51:42;;;;;;;8.32;6.15;;;31.50;62.80;;;;;;4916637;29;20108;-68
2022/07/12 08:54:09;;;;;;;11.70;6.80;;;31.40;62.60;;;;;;4899878;29;20024;-68
2022/07/12 08:56:39;;;;;;;12.25;8.13;;;30.80;66.70;;;;;;4916536;29;20476;-68
2022/07/12 08:59:18;;;;;;;11.93;8.10;;;30.40;65.10;;;;;;4916725;29;20386;-67
2022/07/12 09:01:51;;;;;;;7.28;6.03;;;30.80;64.00;;;;;;4916625;29;20040;-68
2022/07/12 09:04:21;;;;;;;10.18;6.72;;;32.40;59.20;;;;;;4916586;29;20033;-68
2022/07/12 09:06:46;;;;;;;7.93;5.57;;;33.10;55.80;;;;;;4916544;29;20085;-67
2022/07/12 09:09:25;;;;;;;7.72;7.03;;;31.50;57.80;;;;;;4916615;29;20029;-67
2022/07/12 09:11:51;;;;;;;5.68;4.70;;;31.70;58.10;;;;;;4901365;29;20028;-68
2022/07/12 09:14:18;;;;;;;8.70;7.80;;;32.00;59.50;;;;;;4899493;29;20481;-67
2022/07/12 09:16:43;;;;;;;14.20;4.70;;;31.80;57.20;;;;;;4916382;29;20071;-69
2022/07/12 09:19:19;;;;;;;13.27;7.63;;;30.80;61.70;;;;;;4899713;29;20051;-68
2022/07/12 09:21:52;;;;;;;5.68;4.30;;;32.00;58.70;;;;;;4917671;29;20115;-68
2022/07/12 09:24:18;;;;;;;5.90;3.63;;;32.90;55.50;;;;;;4919911;29;20100;-69
2022/07/12 09:26:44;;;;;;;6.20;4.00;;;32.40;55.60;;;;;;4919965;29;20035;-69
2022/07/12 09:29:11;;;;;;;5.05;3.88;;;33.90;52.20;;;;;;4920106;29;20095;-68
2022/07/12 09:37:16;;;;;;;6.75;4.88;;;32.20;54.50;;;;;;4919995;29;20035;-68
2022/07/12 09:39:42;;;;;;;5.25;4.75;;;34.00;50.60;;;;;;4919745;29;20115;-68
2022/07/12 09:42:09;;;;;;;5.72;3.90;;;33.10;50.80;;;;;;4919719;29;20029;-68
2022/07/12 09:44:34;;;;;;;6.13;4.13;;;34.30;50.00;;;;;;4919715;29;20028;-68
2022/07/12 09:47:00;;;;;;;6.50;4.07;;;33.90;49.90;;;;;;4902550;29;20492;-67
2022/07/12 09:49:26;;;;;;;6.65;5.57;;;33.00;50.10;;;;;;4902211;29;20027;-68
2022/07/12 09:51:54;;;;;;;11.38;5.70;;;35.40;46.80;;;;;;4901695;29;20146;-68
2022/07/12 09:54:22;;;;;;;14.80;5.70;;;33.70;49.40;;;;;;4902106;29;20036;-68
2022/07/12 09:56:48;;;;;;;7.63;4.57;;;33.50;52.20;;;;;;4902367;29;20028;-68
2022/07/12 09:59:13;;;;;;;4.10;3.58;;;32.40;50.30;;;;;;4902314;29;20149;-68
2022/07/12 10:01:39;;;;;;;5.55;4.50;;;33.90;49.50;;;;;;4918895;29;20477;-67
2022/07/12 10:04:04;;;;;;;5.78;4.82;;;33.80;48.50;;;;;;4902106;29;20028;-67
2022/07/12 10:06:30;;;;;;;4.97;4.28;;;31.90;50.60;;;;;;4901970;29;20024;-67
2022/07/12 10:08:56;;;;;;;6.13;4.32;;;31.60;52.50;;;;;;4918951;29;20385;-67
2022/07/12 10:11:22;;;;;;;6.25;4.97;;;32.60;52.30;;;;;;4918788;29;20089;-68
2022/07/12 10:13:48;;;;;;;5.82;5.05;;;32.90;51.30;;;;;;4901723;29;20055;-68
2022/07/12 10:16:14;;;;;;;5.53;5.03;;;33.00;51.00;;;;;;4901990;29;20452;-67
2022/07/12 10:18:41;;;;;;;5.95;4.47;;;32.80;51.70;;;;;;4901905;29;20028;-82
2022/07/12 10:21:19;;;;;;;8.32;6.65;;;32.80;52.50;;;;;;4901930;29;20107;-78
2022/07/12 10:27:13;;;;;;;7.88;6.30;;;29.90;56.90;;;;;;4899642;29;20104;-79
2022/07/12 10:29:51;;;;;;;8.98;6.20;;;31.50;55.90;;;;;;4899432;29;20060;-79
2022/07/12 10:32:26;;;;;;;7.85;6.05;;;30.80;58.20;;;;;;4882641;29;20062;-78
2022/07/12 10:34:58;;;;;;;8.57;6.35;;;30.70;58.70;;;;;;4882198;29;20044;-77
2022/07/12 10:37:24;;;;;;;10.82;4.63;;;30.60;56.90;;;;;;4899604;29;20029;-77
2022/07/12 10:40:14;;;;;;;8.15;6.05;;;31.50;56.80;;;;;;4882524;29;20059;-78
2022/07/12 10:43:05;;;;;;;6.50;5.40;;;32.80;52.80;;;;;;4899302;29;20056;-75
2022/07/12 10:45:34;;;;;;;6.25;5.57;;;32.70;54.10;;;;;;4899377;29;20470;-74
2022/07/12 10:48:02;;;;;;;7.07;5.55;;;32.00;55.10;;;;;;4899243;29;20029;-76
2022/07/12 10:50:45;;;;;;;9.75;8.52;;;32.00;53.30;;;;;;4882717;29;20021;-76
2022/07/12 10:53:37;;;;;;;7.27;6.57;;;32.70;52.40;;;;;;4899286;29;20025;-75
2022/07/12 10:56:16;;;;;;;7.07;5.53;;;32.50;55.00;;;;;;4899266;29;20037;-75
2022/07/12 10:58:49;;;;;;;5.93;5.20;;;33.40;53.50;;;;;;4899039;29;20032;-76
2022/07/12 11:01:19;;;;;;;3.38;3.08;;;35.30;50.70;;;;;;4899198;29;20426;-75
2022/07/12 11:03:55;;;;;;;3.05;2.80;;;33.40;49.60;;;;;;4898894;29;20040;-75
2022/07/12 11:06:22;;;;;;;3.28;2.65;;;34.10;50.00;;;;;;4898968;29;20099;-75
2022/07/12 11:09:02;;;;;;;3.85;3.20;;;34.40;48.20;;;;;;4882003;29;20079;-76
2022/07/12 11:11:32;;;;;;;3.65;3.20;;;33.90;49.00;;;;;;4898861;29;20031;-76
2022/07/12 11:13:58;;;;;;;6.15;4.38;;;33.80;49.20;;;;;;4882070;29;20040;-76
2022/07/12 11:16:24;;;;;;;7.53;5.93;;;33.50;52.20;;;;;;4898764;29;20064;-76
2022/07/12 11:18:50;;;;;;;8.90;6.13;;;33.30;53.00;;;;;;4882010;29;20108;-76
2022/07/12 11:21:15;;;;;;;6.57;4.28;;;31.70;53.20;;;;;;4898701;29;20032;-76
2022/07/12 11:23:41;;;;;;;3.90;3.60;;;33.00;53.50;;;;;;4898606;29;20040;-77
2022/07/12 11:26:07;;;;;;;6.47;4.30;;;33.40;51.30;;;;;;4880438;29;20044;-78
2022/07/12 11:28:33;;;;;;;9.18;4.55;;;34.00;49.10;;;;;;4900634;29;20056;-77
2022/07/12 11:31:08;;;;;;;5.32;4.10;;;34.00;49.30;;;;;;4900383;29;20092;-78
2022/07/12 11:33:35;;;;;;;4.72;4.22;;;33.10;51.00;;;;;;4917330;29;20032;-77
2022/07/12 11:36:02;;;;;;;5.10;3.42;;;32.10;51.50;;;;;;4917428;29;20036;-77
2022/07/12 11:38:28;;;;;;;3.30;3.00;;;31.80;51.60;;;;;;4900765;29;20032;-77
2022/07/12 11:40:57;;;;;;;2.60;2.40;;;32.30;49.70;;;;;;4917032;29;20491;-77
2022/07/12 11:43:23;;;;;;;2.80;2.50;;;34.00;46.80;;;;;;4900233;29;20044;-77
2022/07/12 11:45:49;;;;;;;5.53;2.83;;;33.90;47.60;;;;;;4916611;29;20127;-77
2022/07/12 11:48:14;;;;;;;3.75;3.45;;;34.30;47.40;;;;;;4900282;29;20111;-77
2022/07/12 11:50:42;;;;;;;5.22;3.83;;;36.00;45.20;;;;;;4900120;29;20024;-76
2022/07/12 11:53:18;;;;;;;4.78;4.00;;;33.30;46.60;;;;;;4900077;29;20060;-77
2022/07/12 11:55:44;;;;;;;4.35;3.92;;;31.90;50.40;;;;;;4899968;29;20051;-76
2022/07/12 11:58:10;;;;;;;6.53;4.38;;;31.80;51.70;;;;;;4917033;29;20028;-77
2022/07/12 12:00:35;;;;;;;6.25;3.92;;;30.50;54.10;;;;;;4900007;29;20102;-77
2022/07/12 12:03:01;;;;;;;5.00;4.10;;;30.50;53.50;;;;;;4916894;29;20082;-77
2022/07/12 12:05:27;;;;;;;4.10;3.70;;;31.00;54.40;;;;;;4899950;29;20024;-78
2022/07/12 12:07:52;;;;;;;7.28;4.93;;;31.80;52.70;;;;;;4899876;29;20021;-79
2022/07/12 12:10:18;;;;;;;5.93;4.25;;;31.80;51.30;;;;;;4899874;29;20031;-77
2022/07/12 12:12:54;;;;;;;5.18;4.00;;;31.20;52.10;;;;;;4916585;29;20507;-78
2022/07/12 12:15:24;;;;;;;5.30;4.55;;;29.90;53.70;;;;;;4899951;29;20024;-78
2022/07/12 12:17:59;;;;;;;4.25;3.85;;;29.90;54.40;;;;;;4916535;29;20028;-78
2022/07/12 12:20:32;;;;;;;3.78;3.47;;;31.70;53.70;;;;;;4899653;29;20172;-80
2022/07/12 12:22:59;;;;;;;4.33;3.63;;;30.80;52.50;;;;;;4900704;29;20060;-78
2022/07/12 12:25:25;;;;;;;6.53;4.50;;;31.30;52.50;;;;;;4899112;29;20100;-78
2022/07/12 12:28:08;;;;;;;4.88;4.20;;;31.50;51.50;;;;;;4899577;29;20040;-79
2022/07/12 12:30:59;;;;;;;5.63;3.95;;;31.00;52.90;;;;;;4916517;29;20107;-80
2022/07/12 12:33:42;;;;;;;7.07;4.40;;;31.80;50.80;;;;;;4916561;29;20103;-80
2022/07/12 12:36:23;;;;;;;16.48;5.60;;;32.10;50.00;;;;;;4899952;29;20178;-80
2022/07/12 12:38:51;;;;;;;6.43;4.05;;;31.80;50.30;;;;;;4916365;29;20020;-80
2022/07/12 12:41:22;;;;;;;7.57;3.95;;;31.80;51.80;;;;;;4916383;29;20028;-80
2022/07/12 12:43:58;;;;;;;5.93;3.97;;;32.10;51.20;;;;;;4916165;29;20036;-79
2022/07/12 12:49:46;;;;;;;7.55;4.53;;;31.80;49.60;;;;;;4916585;29;20046;-79
2022/07/12 12:52:12;;;;;;;4.03;3.63;;;31.40;50.00;;;;;;4916307;29;20028;-80
2022/07/12 12:58:34;;;;;;;5.35;3.88;;;31.40;53.40;;;;;;4908378;29;20082;-80
2022/07/12 13:01:00;;;;;;;4.55;3.60;;;30.60;49.70;;;;;;4920123;29;20028;-78
2022/07/12 13:03:25;;;;;;;3.97;3.50;;;30.80;50.90;;;;;;4919970;29;20039;-78
2022/07/12 13:05:51;;;;;;;3.05;2.70;;;31.30;51.20;;;;;;4903070;29;20062;-78